Time;durP1;ratioP1;P1;durP2;ratioP2;P2;SDS_P1;SDS_P2;PMS_P1;PMS_P2;Temp;Humidity;BMP_temperature;BMP_pressure;BME280_temperature;BME280_humidity;BME280_pressure;Samples;Min_cycle;Max_cycle;Signal;HPM_P1;HPM_P2
2022/09/09 00:01:32;;;;;;;4.07;1.75;;;;;;;12.77;100.00;100670.75;5032446;28;20029;-91
2022/09/09 00:04:12;;;;;;;6.45;1.50;;;;;;;12.72;100.00;100678.81;5033054;28;20021;-91
2022/09/09 00:07:12;;;;;;;5.00;1.90;;;;;;;12.74;100.00;100668.59;5019336;28;20061;-91
2022/09/09 00:10:18;;;;;;;3.42;1.63;;;;;;;12.64;100.00;100652.50;5006985;28;20046;-90
2022/09/09 00:13:15;;;;;;;4.40;1.70;;;;;;;12.69;100.00;100671.31;5013247;28;20026;-91
2022/09/09 00:15:49;;;;;;;3.77;1.80;;;;;;;12.66;100.00;100661.91;5013266;28;20265;-91
2022/09/09 00:18:29;;;;;;;4.10;1.90;;;;;;;12.64;100.00;100657.88;5013075;28;20072;-91
2022/09/09 00:20:57;;;;;;;3.40;1.42;;;;;;;12.64;100.00;100661.38;5013716;28;20033;-90
2022/09/09 00:23:36;;;;;;;3.85;1.70;;;;;;;12.53;100.00;100649.06;5012569;28;20073;-91
2022/09/09 00:26:16;;;;;;;2.33;1.50;;;;;;;12.55;100.00;100650.41;5011262;28;20028;-91
2022/09/09 00:36:28;;;;;;;5.68;1.20;;;;;;;12.53;100.00;100654.44;5251733;23;20078;-90
2022/09/09 00:38:59;;;;;;;2.40;1.13;;;;;;;12.50;100.00;100658.47;5019496;28;20116;-90
2022/09/09 00:41:27;;;;;;;4.27;1.50;;;;;;;12.49;100.00;100651.50;5011902;28;20280;-90
2022/09/09 00:44:11;;;;;;;2.88;1.20;;;;;;;12.48;100.00;100641.03;5011276;28;20026;-90
2022/09/09 00:47:01;;;;;;;3.67;1.30;;;;;;;12.50;100.00;100647.72;5012444;28;20113;-90
2022/09/09 00:49:43;;;;;;;4.50;1.27;;;;;;;12.44;100.00;100632.69;5010510;28;20057;-91
2022/09/09 00:52:44;;;;;;;3.30;1.20;;;;;;;12.44;100.00;100627.31;5010334;28;20267;-91
2022/09/09 00:55:20;;;;;;;4.05;1.30;;;;;;;12.45;100.00;100628.94;5012146;28;20018;-91
2022/09/09 00:57:48;;;;;;;3.65;1.05;;;;;;;12.39;100.00;100624.69;5012513;28;20025;-90
2022/09/09 01:00:27;;;;;;;2.83;1.20;;;;;;;12.41;100.00;100634.06;5011254;28;20042;-91
2022/09/09 01:03:02;;;;;;;2.92;1.20;;;;;;;12.40;100.00;100631.66;5011985;28;20041;-91
2022/09/09 01:05:51;;;;;;;1.53;1.00;;;;;;;12.40;100.00;100634.34;5011861;28;20104;-90
2022/09/09 01:08:50;;;;;;;1.57;1.07;;;;;;;12.34;100.00;100636.22;5010707;28;20316;-90
2022/09/09 01:11:31;;;;;;;1.80;0.90;;;;;;;12.36;100.00;100633.28;5003614;28;20030;-91
2022/09/09 01:14:13;;;;;;;2.90;1.10;;;;;;;12.30;100.00;100624.44;5010120;28;20096;-91
2022/09/09 01:16:38;;;;;;;2.55;1.10;;;;;;;12.32;100.00;100629.53;5012284;28;20044;-90
2022/09/09 01:19:10;;;;;;;3.72;1.30;;;;;;;12.29;100.00;100625.53;5010574;28;20026;-91
2022/09/09 01:21:49;;;;;;;3.60;1.30;;;;;;;12.34;100.00;100627.38;5011618;28;20484;-90
2022/09/09 01:24:42;;;;;;;2.73;1.10;;;;;;;12.35;100.00;100627.09;5012076;28;20052;-90
2022/09/09 01:27:09;;;;;;;2.87;1.30;;;;;;;12.31;100.00;100614.47;5012160;28;20359;-91
2022/09/09 01:29:34;;;;;;;2.85;1.50;;;;;;;12.33;100.00;100625.75;5009485;28;20499;-90
2022/09/09 01:32:02;;;;;;;4.93;1.60;;;;;;;12.36;100.00;100627.91;5010740;28;20029;-90
2022/09/09 01:34:38;;;;;;;2.03;1.47;;;;;;;12.29;100.00;100619.31;5017920;28;20499;-91
2022/09/09 01:37:10;;;;;;;2.67;1.47;;;;;;;12.21;100.00;100608.09;5023704;28;20300;-90
2022/09/09 01:39:37;;;;;;;11.05;1.60;;;;;;;12.26;100.00;100605.34;5030009;28;20140;-91
2022/09/09 01:42:06;;;;;;;4.50;1.73;;;;;;;12.29;100.00;100611.25;5014077;28;20022;-90
2022/09/09 01:44:31;;;;;;;7.78;1.85;;;;;;;12.29;100.00;100611.25;5017446;28;20045;-91
2022/09/09 01:46:57;;;;;;;3.55;1.90;;;;;;;12.34;100.00;100619.31;5017175;28;20022;-91
2022/09/09 01:49:23;;;;;;;3.27;1.33;;;;;;;12.26;100.00;100613.41;5019140;28;20549;-91
2022/09/09 01:51:51;;;;;;;3.77;1.90;;;;;;;12.30;100.00;100612.88;5022352;28;20662;-90
2022/09/09 01:54:18;;;;;;;6.23;2.07;;;;;;;12.24;100.00;100606.72;5029158;28;20292;-91
2022/09/09 01:57:05;;;;;;;4.82;2.10;;;;;;;12.30;100.00;100613.69;5017572;28;20118;-91
2022/09/09 01:59:40;;;;;;;8.63;2.10;;;;;;;12.20;100.00;100594.91;5011391;28;20044;-90
2022/09/09 02:02:16;;;;;;;3.13;2.00;;;;;;;12.29;100.00;100614.78;5012402;28;20033;-91
2022/09/09 02:04:49;;;;;;;5.68;2.42;;;;;;;12.28;100.00;100607.78;5010691;28;20045;-90
2022/09/09 02:07:33;;;;;;;6.28;1.98;;;;;;;12.26;100.00;100599.19;5011110;28;20065;-91
2022/09/09 02:10:11;;;;;;;3.92;2.10;;;;;;;12.19;100.00;100593.31;5009645;28;20042;-91
2022/09/09 02:12:41;;;;;;;7.13;2.10;;;;;;;12.18;100.00;100587.13;5012755;28;20032;-91
2022/09/09 02:15:30;;;;;;;6.40;2.30;;;;;;;12.21;100.00;100593.84;5013115;28;20421;-91
2022/09/09 02:18:00;;;;;;;5.70;2.10;;;;;;;12.16;100.00;100589.28;5011383;28;20026;-90
2022/09/09 02:20:27;;;;;;;5.07;2.10;;;;;;;12.20;100.00;100601.09;5009697;28;20311;-90
2022/09/09 02:22:53;;;;;;;5.88;2.40;;;;;;;12.11;100.00;100586.63;5011300;28;20053;-91
2022/09/09 02:25:23;;;;;;;5.03;2.45;;;;;;;12.21;100.00;100597.34;5011517;28;20388;-91
2022/09/09 02:27:50;;;;;;;6.20;2.50;;;;;;;12.10;100.00;100585.81;5008284;28;20030;-91
2022/09/09 02:30:16;;;;;;;7.38;2.55;;;;;;;12.17;100.00;100590.09;5009896;28;20026;-91
2022/09/09 02:32:43;;;;;;;10.00;2.80;;;;;;;12.13;100.00;100595.19;5011258;28;20022;-90
2022/09/09 02:35:13;;;;;;;6.65;2.55;;;;;;;12.09;100.00;100584.22;5010547;28;20109;-90
2022/09/09 02:37:39;;;;;;;5.18;2.85;;;;;;;12.20;100.00;100589.53;5010762;28;20454;-90
2022/09/09 02:40:07;;;;;;;6.50;2.70;;;;;;;12.10;100.00;100585.81;5008850;28;20034;-91
2022/09/09 02:42:39;;;;;;;6.97;2.73;;;;;;;12.16;100.00;100596.53;5009751;28;20457;-91
2022/09/09 02:45:05;;;;;;;7.27;3.10;;;;;;;12.09;100.00;100570.78;5010505;28;20281;-91
2022/09/09 02:47:36;;;;;;;10.82;3.00;;;;;;;12.16;100.00;100588.47;5010647;28;20370;-91
2022/09/09 02:50:15;;;;;;;7.82;2.33;;;;;;;12.09;100.00;100591.44;5008222;28;20101;-91
2022/09/09 02:53:20;;;;;;;6.70;2.28;;;;;;;12.07;100.00;100582.84;5010697;28;20121;-91
2022/09/09 02:55:58;;;;;;;6.43;2.80;;;;;;;12.06;100.00;100586.63;5010779;28;20056;-90
2022/09/09 02:58:24;;;;;;;6.80;2.55;;;;;;;12.10;100.00;100595.75;5010238;28;20029;-90
2022/09/09 03:00:51;;;;;;;8.65;2.30;;;;;;;12.11;100.00;100594.66;5009467;28;20057;-91
2022/09/09 03:03:18;;;;;;;9.77;2.50;;;;;;;12.15;100.00;100597.59;5013651;28;20026;-90
2022/09/09 03:05:44;;;;;;;8.65;2.63;;;;;;;12.14;100.00;100602.19;5011425;28;20053;-91
2022/09/09 03:08:10;;;;;;;3.83;2.20;;;;;;;12.13;100.00;100595.19;5013549;28;20037;-91
2022/09/09 03:10:36;;;;;;;4.38;2.13;;;;;;;12.08;100.00;100587.16;5015074;28;20030;-90
2022/09/09 03:13:02;;;;;;;8.05;2.20;;;;;;;12.13;100.00;100592.53;5016791;28;20017;-91
2022/09/09 03:15:29;;;;;;;6.77;2.70;;;;;;;12.04;100.00;100584.22;5016038;28;20044;-91
2022/09/09 03:17:56;;;;;;;6.70;2.38;;;;;;;11.99;100.00;100586.13;5017054;28;20021;-90
2022/09/09 03:20:22;;;;;;;8.55;2.58;;;;;;;12.04;100.00;100596.88;5012403;28;20083;-91
2022/09/09 03:22:47;;;;;;;7.85;2.28;;;;;;;12.00;100.00;100593.09;5013911;28;20034;-91
2022/09/09 03:25:13;;;;;;;7.20;2.77;;;;;;;12.02;100.00;100596.31;5014432;28;20025;-91
2022/09/09 03:27:38;;;;;;;6.20;2.80;;;;;;;12.08;100.00;100605.97;5014182;28;20034;-91
2022/09/09 03:30:05;;;;;;;7.10;2.73;;;;;;;12.13;100.00;100605.16;5012234;28;20057;-91
2022/09/09 03:32:31;;;;;;;11.80;2.60;;;;;;;11.99;100.00;100583.44;5011714;28;20022;-91
2022/09/09 03:34:56;;;;;;;7.53;2.60;;;;;;;12.15;100.00;100601.09;5013808;28;20030;-91
2022/09/09 03:37:22;;;;;;;8.40;2.73;;;;;;;12.17;100.00;100598.97;5013637;28;20080;-90
2022/09/09 03:42:22;;;;;;;7.30;2.90;;;;;;;12.30;100.00;100605.63;5757730;23;20065;-91
2022/09/09 03:44:49;;;;;;;6.43;2.93;;;;;;;12.25;100.00;100595.69;4993689;28;20022;-91
2022/09/09 03:47:19;;;;;;;13.40;2.90;;;;;;;12.26;100.00;100599.97;4994190;28;20113;-91
2022/09/09 03:49:45;;;;;;;11.35;2.70;;;;;;;12.27;100.00;100604.28;4991757;28;20062;-91
2022/09/09 03:52:11;;;;;;;6.72;2.75;;;;;;;12.28;100.00;100602.41;4993450;28;20100;-91
2022/09/09 03:54:37;;;;;;;12.55;3.28;;;;;;;12.29;100.00;100592.47;4994094;28;20109;-91
2022/09/09 03:57:04;;;;;;;8.63;3.10;;;;;;;12.32;100.00;100597.28;4975772;28;20022;-90
2022/09/09 03:59:29;;;;;;;7.13;2.87;;;;;;;12.31;100.00;100588.44;4990878;28;20297;-91
2022/09/09 04:01:56;;;;;;;8.23;2.70;;;;;;;12.33;100.00;100598.91;4989887;28;20038;-92
2022/09/09 04:04:22;;;;;;;6.38;2.75;;;;;;;12.35;100.00;100597.53;4993962;28;20102;-91
2022/09/09 04:06:48;;;;;;;7.23;2.77;;;;;;;12.36;100.00;100601.03;4993489;28;20114;-91
2022/09/09 04:09:14;;;;;;;11.25;2.65;;;;;;;12.35;100.00;100594.84;4992667;28;20038;-91
2022/09/09 04:11:39;;;;;;;9.33;2.80;;;;;;;12.29;100.00;100587.91;4993652;28;20464;-91
2022/09/09 04:14:05;;;;;;;10.93;2.87;;;;;;;12.35;100.00;100594.84;4993411;28;21007;-91
2022/09/09 04:16:32;;;;;;;9.13;2.60;;;;;;;12.28;100.00;100578.25;4993877;28;20026;-92
2022/09/09 04:18:58;;;;;;;10.53;2.87;;;;;;;12.32;100.00;100581.16;4974044;28;20332;-91
2022/09/09 04:21:23;;;;;;;8.30;2.95;;;;;;;12.39;100.00;100587.06;4978078;28;20026;-91
2022/09/09 04:23:48;;;;;;;8.47;2.87;;;;;;;12.38;100.00;100580.88;4975111;28;20433;-91
2022/09/09 04:26:14;;;;;;;7.77;3.07;;;;;;;12.38;100.00;100585.44;4993459;28;20098;-91
2022/09/09 04:28:39;;;;;;;7.55;2.67;;;;;;;12.36;100.00;100582.22;4992530;28;20411;-91
2022/09/09 04:31:10;;;;;;;10.03;3.37;;;;;;;12.37;100.00;100587.31;4992299;28;20531;-91
2022/09/09 04:33:36;;;;;;;9.43;2.83;;;;;;;12.37;100.00;100578.47;4993154;28;20022;-92
2022/09/09 04:36:02;;;;;;;10.33;3.07;;;;;;;12.45;100.00;100583.25;4992972;28;20340;-92
2022/09/09 04:38:27;;;;;;;8.23;3.22;;;;;;;12.41;100.00;100574.16;4991990;28;20098;-91
2022/09/09 04:40:53;;;;;;;11.70;3.20;;;;;;;12.42;100.00;100581.09;4992641;28;20046;-91
2022/09/09 04:43:20;;;;;;;10.65;3.58;;;;;;;12.35;100.00;100572.56;4990771;28;20118;-92
2022/09/09 04:45:50;;;;;;;10.95;3.75;;;;;;;12.40;100.00;100576.03;4970971;28;20023;-89
2022/09/09 04:48:16;;;;;;;12.80;3.07;;;;;;;12.32;100.00;100578.47;4974699;28;20026;-91
2022/09/09 04:50:41;;;;;;;7.87;2.80;;;;;;;12.30;100.00;100577.94;4992155;28;20280;-87
2022/09/09 04:53:07;;;;;;;10.47;2.70;;;;;;;12.18;100.00;100572.88;4988127;28;20660;-87
2022/09/09 04:55:34;;;;;;;9.73;2.30;;;;;;;12.20;100.00;100582.31;4984263;28;20018;-88
2022/09/09 04:58:07;;;;;;;11.20;2.57;;;;;;;12.15;100.00;100566.19;4973019;28;20360;-87
2022/09/09 05:00:35;;;;;;;12.13;3.20;;;;;;;12.21;100.00;100562.41;4981927;28;20036;-87
2022/09/09 05:03:05;;;;;;;9.57;3.25;;;;;;;12.28;100.00;100570.19;4990002;28;20106;-88
2022/09/09 05:05:31;;;;;;;11.75;3.13;;;;;;;12.25;100.00;100554.59;4981088;28;20057;-88
2022/09/09 05:08:08;;;;;;;13.77;3.45;;;;;;;12.41;100.00;100576.84;4991884;28;20023;-88
2022/09/09 05:10:34;;;;;;;15.15;3.60;;;;;;;12.44;100.00;100572.78;4991713;28;20019;-86
2022/09/09 05:12:59;;;;;;;8.43;3.10;;;;;;;12.47;100.00;100573.03;4989856;28;20045;-88
2022/09/09 05:15:24;;;;;;;11.20;3.23;;;;;;;12.49;100.00;100575.47;4978940;28;20062;-87
2022/09/09 05:17:52;;;;;;;11.37;2.93;;;;;;;12.44;100.00;100570.09;4971957;28;20023;-88
2022/09/09 05:20:18;;;;;;;12.75;3.40;;;;;;;12.43;100.00;100566.59;4963450;28;20045;-89
2022/09/09 05:22:43;;;;;;;9.52;3.05;;;;;;;12.45;100.00;100577.88;4986844;28;20022;-87
2022/09/09 05:25:09;;;;;;;5.67;2.77;;;;;;;12.37;100.00;100568.50;4991453;28;20073;-87
2022/09/09 05:27:34;;;;;;;14.80;3.43;;;;;;;12.37;100.00;100573.88;4988454;28;20026;-88
2022/09/09 05:30:00;;;;;;;17.73;3.80;;;;;;;12.45;100.00;100567.13;4988333;28;20034;-88
2022/09/09 05:32:25;;;;;;;12.57;3.47;;;;;;;12.24;100.00;100543.03;4991093;28;20033;-88
2022/09/09 05:34:52;;;;;;;15.15;3.47;;;;;;;12.25;100.00;100527.75;4972990;28;20030;-89
2022/09/09 05:37:18;;;;;;;14.43;3.15;;;;;;;12.42;100.00;100554.25;4992737;28;20386;-88
2022/09/09 05:39:43;;;;;;;13.32;3.50;;;;;;;12.52;100.00;100558.75;4988680;28;20041;-88
2022/09/09 05:42:10;;;;;;;14.17;3.47;;;;;;;12.49;100.00;100556.66;4990940;28;20026;-88
2022/09/09 05:44:35;;;;;;;11.90;3.80;;;;;;;12.50;100.00;100564.41;4991529;28;20118;-88
2022/09/09 05:47:00;;;;;;;14.23;3.20;;;;;;;12.60;100.00;100576.22;4991184;28;20105;-88
2022/09/09 05:49:26;;;;;;;12.43;3.10;;;;;;;12.61;100.00;100577.78;4990645;28;20056;-88
2022/09/09 05:51:51;;;;;;;12.00;3.10;;;;;;;12.52;100.00;100556.88;4990733;28;20474;-88
2022/09/09 05:54:17;;;;;;;16.35;3.60;;;;;;;12.75;100.00;100576.13;4974337;28;20030;-89
2022/09/09 05:56:42;;;;;;;12.47;3.10;;;;;;;12.81;100.00;100577.66;4973801;28;20022;-89
2022/09/09 05:59:08;;;;;;;15.82;2.92;;;;;;;12.76;100.00;100568.84;4990167;28;20488;-88
2022/09/09 06:01:35;;;;;;;15.17;3.33;;;;;;;12.91;100.00;100587.56;4990734;28;20030;-88
2022/09/09 06:04:02;;;;;;;13.32;3.47;;;;;;;12.92;100.00;100581.09;4991505;28;20073;-87
2022/09/09 06:06:31;;;;;;;11.45;3.05;;;;;;;12.93;100.00;100584.59;4991374;28;20034;-87
2022/09/09 06:08:58;;;;;;;11.10;2.97;;;;;;;12.91;100.00;100582.19;4990018;28;20022;-88
2022/09/09 06:11:26;;;;;;;13.95;3.60;;;;;;;12.96;100.00;100573.28;4990806;28;20551;-88
2022/09/09 06:13:53;;;;;;;12.20;3.67;;;;;;;13.12;100.00;100571.28;4990538;28;20521;-88
2022/09/09 06:16:24;;;;;;;15.47;3.10;;;;;;;13.25;100.00;100585.97;4991217;28;20638;-88
2022/09/09 06:18:50;;;;;;;15.07;4.00;;;;;;;13.36;100.00;100584.00;4989733;28;20277;-88
2022/09/09 06:21:27;;;;;;;17.83;3.20;;;;;;;13.42;100.00;100577.53;4989216;28;20027;-88
2022/09/09 06:23:52;;;;;;;13.07;3.10;;;;;;;13.54;100.00;100582.53;4973225;28;20022;-89
2022/09/09 06:26:43;;;;;;;16.27;3.20;;;;;;;13.70;100.00;100578.59;4973681;28;20036;-88
2022/09/09 06:29:09;;;;;;;15.57;3.27;;;;;;;13.85;100.00;100582.25;4989948;28;20034;-89
2022/09/09 06:31:36;;;;;;;13.27;2.63;;;;;;;14.00;100.00;100576.69;4989932;28;20286;-89
2022/09/09 06:34:04;;;;;;;12.15;3.00;;;;;;;14.14;100.00;100579.50;4990546;28;20025;-88
2022/09/09 06:36:33;;;;;;;15.57;2.90;;;;;;;14.26;100.00;100578.25;4990765;28;20064;-88
2022/09/09 06:38:59;;;;;;;9.40;2.63;;;;;;;14.30;100.00;100582.00;4989603;28;20054;-89
2022/09/09 06:41:31;;;;;;;12.98;2.70;;;;;;;14.34;100.00;100578.44;4990228;28;20030;-88
2022/09/09 06:43:56;;;;;;;14.68;2.45;;;;;;;14.40;100.00;100587.25;4990350;28;20064;-89
2022/09/09 06:46:32;;;;;;;10.33;2.70;;;;;;;14.49;100.00;100582.00;4990645;28;20393;-88
2022/09/09 06:54:09;;;;;;;13.50;3.00;;;;;;;14.29;100.00;100581.19;6038630;23;20279;-89
2022/09/09 06:56:41;;;;;;;13.82;2.72;;;;;;;14.28;100.00;100582.25;5030508;28;20116;-88
2022/09/09 06:59:08;;;;;;;12.55;2.90;;;;;;;14.24;100.00;100570.47;5012739;28;20021;-88
2022/09/09 07:01:36;;;;;;;10.27;3.10;;;;;;;14.26;100.00;100579.06;5010627;28;20148;-88
2022/09/09 07:04:04;;;;;;;11.82;3.00;;;;;;;14.19;100.00;100565.94;5009768;28;20061;-88
2022/09/09 07:06:34;;;;;;;16.37;2.70;;;;;;;14.22;100.00;100557.28;5010395;28;20026;-88
2022/09/09 07:09:03;;;;;;;10.47;2.80;;;;;;;14.41;100.00;100580.75;5009006;28;20450;-89
2022/09/09 07:11:32;;;;;;;9.38;2.65;;;;;;;14.60;100.00;100596.16;5009681;28;20034;-88
2022/09/09 07:13:58;;;;;;;10.95;2.55;;;;;;;14.74;100.00;100586.28;5008357;28;20026;-89
2022/09/09 07:16:25;;;;;;;11.65;2.65;;;;;;;14.78;100.00;100573.03;5010123;28;20030;-89
2022/09/09 07:18:50;;;;;;;11.50;2.25;;;;;;;14.98;100.00;100593.50;5009631;28;20436;-88
2022/09/09 07:21:17;;;;;;;9.15;2.38;;;;;;;15.07;100.00;100593.63;5008561;28;20096;-89
2022/09/09 07:23:42;;;;;;;10.07;2.00;;;;;;;15.00;100.00;100585.91;5010036;28;20450;-87
2022/09/09 07:26:13;;;;;;;11.93;2.80;;;;;;;15.02;100.00;100577.50;5009677;28;20045;-88
2022/09/09 07:28:39;;;;;;;5.93;2.22;;;;;;;15.15;100.00;100579.47;5010130;28;20034;-88
2022/09/09 07:31:05;;;;;;;14.75;2.25;;;;;;;15.16;100.00;100580.25;5008261;28;20028;-88
2022/09/09 07:33:33;;;;;;;13.00;2.43;;;;;;;15.15;100.00;100568.69;5009659;28;20144;-88
2022/09/09 07:36:08;;;;;;;13.37;2.30;;;;;;;15.42;100.00;100569.84;5009813;28;20289;-88
2022/09/09 07:38:45;;;;;;;10.55;2.42;;;;;;;15.81;100.00;100573.19;5010088;28;20481;-88
2022/09/09 07:41:13;;;;;;;10.88;2.10;;;;;;;16.17;100.00;100580.63;5007210;28;20029;-88
2022/09/09 07:43:41;;;;;;;10.80;1.98;;;;;;;16.00;100.00;100584.72;5009787;28;20436;-87
2022/09/09 07:46:07;;;;;;;12.82;1.90;;;;;;;15.77;100.00;100583.00;5008383;28;20133;-88
2022/09/09 07:48:33;;;;;;;13.25;2.05;;;;;;;15.67;100.00;100579.38;5011542;28;20104;-87
2022/09/09 07:51:11;;;;;;;12.43;2.30;;;;;;;15.80;100.00;100594.00;5008415;28;20497;-88
2022/09/09 07:53:38;;;;;;;13.10;2.43;;;;;;;15.95;100.00;100589.44;5009659;28;20373;-88
2022/09/09 07:56:09;;;;;;;10.27;2.17;;;;;;;15.92;100.00;100581.94;5009418;28;20648;-88
2022/09/09 07:58:35;;;;;;;13.20;2.08;;;;;;;15.97;100.00;100581.84;5010877;28;20034;-88
2022/09/09 08:01:10;;;;;;;10.93;2.10;;;;;;;16.04;100.00;100583.03;5011641;28;20037;-88
2022/09/09 08:03:36;;;;;;;9.10;1.92;;;;;;;16.28;100.00;100595.53;5012962;28;20033;-88
2022/09/09 08:06:22;;;;;;;8.05;1.63;;;;;;;16.49;100.00;100592.41;5012955;28;20022;-88
2022/09/09 08:08:51;;;;;;;9.23;1.63;;;;;;;16.56;100.00;100586.59;5012767;28;20105;-88
2022/09/09 08:11:17;;;;;;;13.00;1.98;;;;;;;16.48;100.00;100580.00;5010154;28;20034;-88
2022/09/09 08:13:44;;;;;;;10.68;1.85;;;;;;;16.67;100.00;100592.56;5013280;28;20080;-88
2022/09/09 08:16:15;;;;;;;12.25;2.00;;;;;;;16.78;100.00;100596.63;5012372;28;20022;-88
2022/09/09 08:18:41;;;;;;;7.60;1.90;;;;;;;16.68;100.00;100586.84;5013062;28;20384;-88
2022/09/09 08:21:12;;;;;;;13.18;1.75;;;;;;;16.47;100.00;100587.28;5011344;28;20110;-88
2022/09/09 08:23:41;;;;;;;10.93;1.90;;;;;;;16.48;100.00;100599.72;5009938;28;20021;-88
2022/09/09 08:26:11;;;;;;;12.47;1.80;;;;;;;16.63;100.00;100600.47;5012453;28;20026;-87
2022/09/09 08:28:36;;;;;;;9.90;1.63;;;;;;;16.76;99.81;100593.44;5012733;28;20288;-88
2022/09/09 08:31:06;;;;;;;9.43;2.10;;;;;;;16.71;97.82;100596.25;5012231;28;20077;-88
2022/09/09 08:33:33;;;;;;;7.30;2.00;;;;;;;16.69;99.25;100601.97;5011707;28;20385;-88
2022/09/09 08:35:58;;;;;;;8.43;1.93;;;;;;;16.83;99.80;100598.44;5010311;28;20026;-88
2022/09/09 08:38:24;;;;;;;9.40;1.70;;;;;;;16.82;99.10;100594.94;5012266;28;20690;-89
2022/09/09 08:40:59;;;;;;;8.40;1.93;;;;;;;16.94;97.40;100607.94;5010752;28;20033;-88
2022/09/09 08:43:27;;;;;;;8.35;1.92;;;;;;;16.93;98.57;100606.31;5011331;28;20037;-87
2022/09/09 08:46:26;;;;;;;6.53;1.60;;;;;;;17.04;98.79;100607.72;5012461;28;20026;-88
2022/09/09 08:48:58;;;;;;;7.35;1.60;;;;;;;16.82;96.91;100605.75;5008799;28;20053;-88
2022/09/09 08:51:30;;;;;;;12.27;1.83;;;;;;;16.64;96.58;100607.50;5011089;28;20469;-88
2022/09/09 08:54:00;;;;;;;6.40;1.48;;;;;;;16.43;96.86;100604.44;5011012;28;20488;-88
2022/09/09 08:56:28;;;;;;;7.10;1.70;;;;;;;16.38;98.31;100613.47;5012125;28;20118;-88
2022/09/09 08:58:56;;;;;;;10.23;1.70;;;;;;;16.31;99.92;100602.25;5011877;28;20026;-88
2022/09/09 09:01:43;;;;;;;9.25;2.10;;;;;;;16.38;99.95;100618.06;5011407;28;20037;-88
2022/09/09 09:04:38;;;;;;;6.97;1.80;;;;;;;16.32;100.00;100614.66;5011824;28;20556;-88
2022/09/09 09:07:09;;;;;;;9.30;1.73;;;;;;;16.49;100.00;100631.06;4998078;28;20297;-88
2022/09/09 09:09:34;;;;;;;7.82;1.92;;;;;;;16.46;99.00;100626.25;5008632;28;20038;-88
2022/09/09 09:12:02;;;;;;;9.35;2.00;;;;;;;16.46;96.95;100628.16;5010382;28;20164;-87
2022/09/09 09:14:34;;;;;;;9.45;1.60;;;;;;;16.44;97.14;100633.06;5010414;28;20502;-88
2022/09/09 09:17:20;;;;;;;8.52;1.77;;;;;;;16.46;98.08;100620.84;5011299;28;20111;-87
2022/09/09 09:19:48;;;;;;;8.20;1.77;;;;;;;16.55;96.86;100625.56;5010512;28;20559;-88
2022/09/09 09:22:31;;;;;;;12.43;1.73;;;;;;;16.73;97.15;100629.22;5011569;28;20335;-88
2022/09/09 09:25:10;;;;;;;10.13;1.83;;;;;;;16.79;96.98;100630.72;5011420;28;20026;-87
2022/09/09 09:28:11;;;;;;;11.77;1.85;;;;;;;16.77;96.02;100631.03;5011314;28;20027;-88
2022/09/09 09:30:45;;;;;;;8.38;1.80;;;;;;;16.92;96.22;100631.78;5011169;28;20389;-89
2022/09/09 09:33:49;;;;;;;7.95;1.65;;;;;;;17.07;96.61;100646.91;5010878;28;20026;-88
2022/09/09 09:36:15;;;;;;;11.00;1.58;;;;;;;17.25;97.11;100645.91;5010581;28;20113;-88
2022/09/09 09:39:01;;;;;;;11.07;2.08;;;;;;;17.32;95.91;100628.44;5011026;28;20037;-88
2022/09/09 09:41:41;;;;;;;8.30;1.70;;;;;;;17.50;95.67;100645.63;5011107;28;20022;-88
2022/09/09 09:44:32;;;;;;;10.32;2.00;;;;;;;17.59;92.64;100637.53;5011146;28;20033;-88
2022/09/09 09:47:15;;;;;;;10.10;1.80;;;;;;;17.71;95.86;100635.06;5011078;28;20048;-87
2022/09/09 09:49:55;;;;;;;8.33;1.60;;;;;;;17.95;90.51;100629.25;5011120;28;20292;-87
2022/09/09 10:06:55;;;;;;;10.98;1.60;;;;;;;16.95;98.11;100625.78;5468593;22;20123;-87
2022/09/09 10:09:26;;;;;;;10.65;1.70;;;;;;;16.74;96.80;100625.41;5011900;28;20560;-87
2022/09/09 10:12:06;;;;;;;10.50;1.92;;;;;;;16.68;98.12;100635.53;5012160;28;20166;-88
2022/09/09 10:14:50;;;;;;;7.97;1.87;;;;;;;16.71;98.65;100637.66;5030423;28;20033;-86
2022/09/09 10:17:58;;;;;;;9.20;1.63;;;;;;;16.95;97.89;100625.78;5030259;28;20284;-87
2022/09/09 10:20:44;;;;;;;7.93;1.45;;;;;;;17.23;97.27;100636.50;5029650;28;20037;-88
2022/09/09 10:23:34;;;;;;;7.93;1.73;;;;;;;17.23;96.17;100639.22;5029971;28;20021;-88
2022/09/09 10:26:04;;;;;;;8.27;2.03;;;;;;;17.16;99.42;100636.94;5027880;28;20087;-87
2022/09/09 10:28:56;;;;;;;9.10;1.90;;;;;;;17.24;99.42;100646.22;5030618;28;20032;-86
2022/09/09 10:31:48;;;;;;;8.15;1.58;;;;;;;17.09;100.00;100647.38;5029875;28;20534;-89
2022/09/09 10:34:35;;;;;;;9.07;1.80;;;;;;;16.88;100.00;100653.25;5012824;28;20077;-88
2022/09/09 10:37:03;;;;;;;6.28;1.70;;;;;;;16.55;100.00;100645.28;5029981;28;20033;-87
2022/09/09 10:39:40;;;;;;;5.13;1.55;;;;;;;16.74;100.00;100657.88;5030456;28;20025;-87
2022/09/09 10:42:18;;;;;;;11.97;1.80;;;;;;;16.59;100.00;100650.91;5031384;28;20077;-86
2022/09/09 10:45:15;;;;;;;10.27;1.87;;;;;;;16.43;100.00;100647.69;5032255;28;20363;-86
2022/09/09 10:48:14;;;;;;;10.23;2.30;;;;;;;16.47;100.00;100649.50;5033895;28;20026;-86
2022/09/09 10:50:47;;;;;;;11.60;1.73;;;;;;;16.72;100.00;100652.78;5033975;28;20091;-86
2022/09/09 10:53:17;;;;;;;9.85;1.92;;;;;;;16.80;100.00;100640.44;5031164;28;20223;-87
2022/09/09 10:55:48;;;;;;;7.93;2.08;;;;;;;17.04;100.00;100648.31;5012345;28;20412;-86
2022/09/09 10:58:34;;;;;;;7.65;2.00;;;;;;;17.34;100.00;100653.31;5029827;28;20030;-86
2022/09/09 11:01:13;;;;;;;6.35;1.70;;;;;;;17.47;100.00;100648.94;5010519;28;20030;-86
2022/09/09 11:03:41;;;;;;;9.18;1.77;;;;;;;17.86;100.00;100645.50;5029579;28;20030;-87
2022/09/09 11:06:14;;;;;;;11.48;2.15;;;;;;;17.86;96.81;100636.56;5028868;28;20041;-87
2022/09/09 11:08:39;;;;;;;7.80;1.90;;;;;;;17.82;100.00;100636.38;5009958;28;20030;-86
2022/09/09 11:11:18;;;;;;;5.40;1.90;;;;;;;17.53;98.27;100642.28;5009220;28;20277;-87
2022/09/09 11:13:54;;;;;;;7.43;1.92;;;;;;;17.32;99.83;100652.81;5010030;28;20105;-86
2022/09/09 11:16:26;;;;;;;5.53;1.75;;;;;;;17.19;100.00;100641.75;5018217;28;20044;-86
2022/09/09 11:18:57;;;;;;;6.72;1.67;;;;;;;17.22;100.00;100645.72;5029403;28;20068;-86
2022/09/09 11:21:34;;;;;;;7.40;1.83;;;;;;;17.23;100.00;100633.78;5028984;28;20021;-86
2022/09/09 11:24:04;;;;;;;5.90;1.50;;;;;;;17.66;100.00;100663.09;5029233;28;20279;-87
2022/09/09 11:26:45;;;;;;;8.82;2.13;;;;;;;18.07;100.00;100644.19;5029231;28;20485;-86
2022/09/09 11:29:34;;;;;;;4.22;1.55;;;;;;;18.30;100.00;100651.09;5029162;28;20026;-87
2022/09/09 11:32:20;;;;;;;5.03;1.35;;;;;;;18.22;95.97;100649.19;5010103;28;20436;-87
2022/09/09 11:35:02;;;;;;;6.55;1.52;;;;;;;17.81;96.06;100626.66;5013205;28;20040;-87
2022/09/09 11:37:42;;;;;;;3.15;1.48;;;;;;;17.91;95.15;100627.50;5013101;28;20116;-87
2022/09/09 11:40:19;;;;;;;4.95;1.45;;;;;;;17.78;94.97;100640.03;5012829;28;20445;-87
2022/09/09 11:42:49;;;;;;;5.10;1.52;;;;;;;17.77;98.09;100633.00;5013452;28;20018;-87
2022/09/09 11:45:22;;;;;;;5.25;1.60;;;;;;;17.65;96.72;100642.53;5013280;28;20029;-88
2022/09/09 11:47:53;;;;;;;4.30;1.43;;;;;;;17.54;97.62;100641.97;5012839;28;20025;-87
2022/09/09 11:50:18;;;;;;;5.40;1.40;;;;;;;17.58;96.51;100642.16;5028401;28;20307;-87
2022/09/09 11:52:46;;;;;;;7.73;1.70;;;;;;;17.29;96.39;100634.47;5033349;28;20034;-87
2022/09/09 11:55:33;;;;;;;6.82;1.52;;;;;;;17.32;100.00;100641.97;5032720;28;20111;-88
2022/09/09 11:58:00;;;;;;;6.65;1.55;;;;;;;17.32;100.00;100645.50;5032606;28;20056;-87
2022/09/09 12:00:44;;;;;;;5.38;1.83;;;;;;;17.30;100.00;100644.19;5032311;28;20041;-86
2022/09/09 12:03:33;;;;;;;5.20;2.15;;;;;;;17.49;100.00;100644.81;5032783;28;20036;-87
2022/09/09 12:06:00;;;;;;;5.53;1.90;;;;;;;17.38;100.00;100636.13;5030177;28;20030;-87
2022/09/09 12:08:29;;;;;;;7.75;1.90;;;;;;;17.23;99.92;100631.91;5032211;28;20089;-87
2022/09/09 12:10:59;;;;;;;8.15;1.67;;;;;;;17.44;100.00;100641.44;5031754;28;20112;-87